sensor_id;sensor_type;location;lat;lon;timestamp;P1;durP1;ratioP1;P2;durP2;ratioP2
54831;SDS011;40730;53.068;6.572;2023-06-24T00:00:28;11.00;;;7.55;;
54831;SDS011;40730;53.068;6.572;2023-06-24T00:02:54;9.40;;;7.85;;
54831;SDS011;40730;53.068;6.572;2023-06-24T00:05:19;10.23;;;8.93;;
54831;SDS011;40730;53.068;6.572;2023-06-24T00:07:45;10.40;;;7.53;;
54831;SDS011;40730;53.068;6.572;2023-06-24T00:10:11;8.80;;;7.70;;
54831;SDS011;40730;53.068;6.572;2023-06-24T00:12:38;9.57;;;8.45;;
54831;SDS011;40730;53.068;6.572;2023-06-24T00:15:05;9.10;;;7.00;;
54831;SDS011;40730;53.068;6.572;2023-06-24T00:17:31;7.93;;;7.13;;
54831;SDS011;40730;53.068;6.572;2023-06-24T00:19:57;8.38;;;7.53;;
54831;SDS011;40730;53.068;6.572;2023-06-24T00:22:22;9.63;;;8.02;;
54831;SDS011;40730;53.068;6.572;2023-06-24T00:24:48;9.52;;;8.30;;
54831;SDS011;40730;53.068;6.572;2023-06-24T00:27:15;10.40;;;8.57;;
54831;SDS011;40730;53.068;6.572;2023-06-24T00:29:41;7.25;;;6.55;;
54831;SDS011;40730;53.068;6.572;2023-06-24T00:32:06;8.57;;;6.50;;
54831;SDS011;40730;53.068;6.572;2023-06-24T00:34:32;8.40;;;7.35;;
54831;SDS011;40730;53.068;6.572;2023-06-24T00:36:59;8.98;;;7.05;;
54831;SDS011;40730;53.068;6.572;2023-06-24T00:39:25;9.20;;;7.45;;
54831;SDS011;40730;53.068;6.572;2023-06-24T00:41:50;9.23;;;7.25;;
54831;SDS011;40730;53.068;6.572;2023-06-24T00:44:16;10.32;;;8.35;;
54831;SDS011;40730;53.068;6.572;2023-06-24T00:46:42;9.52;;;8.52;;
54831;SDS011;40730;53.068;6.572;2023-06-24T00:49:08;12.20;;;8.75;;
54831;SDS011;40730;53.068;6.572;2023-06-24T00:51:33;9.40;;;8.15;;
54831;SDS011;40730;53.068;6.572;2023-06-24T00:54:01;12.32;;;8.95;;
54831;SDS011;40730;53.068;6.572;2023-06-24T00:56:31;10.20;;;8.65;;
54831;SDS011;40730;53.068;6.572;2023-06-24T00:58:58;9.30;;;8.30;;
54831;SDS011;40730;53.068;6.572;2023-06-24T01:01:32;9.48;;;8.45;;
54831;SDS011;40730;53.068;6.572;2023-06-24T01:04:00;10.75;;;8.23;;
54831;SDS011;40730;53.068;6.572;2023-06-24T01:06:27;12.32;;;9.10;;
54831;SDS011;40730;53.068;6.572;2023-06-24T01:08:55;10.07;;;9.07;;
54831;SDS011;40730;53.068;6.572;2023-06-24T01:11:25;8.68;;;7.28;;
54831;SDS011;40730;53.068;6.572;2023-06-24T01:13:51;8.77;;;7.20;;
54831;SDS011;40730;53.068;6.572;2023-06-24T01:16:26;8.65;;;7.85;;
54831;SDS011;40730;53.068;6.572;2023-06-24T01:19:03;8.88;;;6.90;;
54831;SDS011;40730;53.068;6.572;2023-06-24T01:30:49;13.20;;;9.10;;
54831;SDS011;40730;53.068;6.572;2023-06-24T01:33:24;12.18;;;7.75;;
54831;SDS011;40730;53.068;6.572;2023-06-24T01:35:57;11.07;;;8.98;;
54831;SDS011;40730;53.068;6.572;2023-06-24T01:38:27;8.88;;;7.97;;
54831;SDS011;40730;53.068;6.572;2023-06-24T01:40:59;12.65;;;8.40;;
54831;SDS011;40730;53.068;6.572;2023-06-24T01:43:28;13.95;;;10.18;;
54831;SDS011;40730;53.068;6.572;2023-06-24T01:45:54;11.13;;;9.98;;
54831;SDS011;40730;53.068;6.572;2023-06-24T01:48:22;14.90;;;11.48;;
54831;SDS011;40730;53.068;6.572;2023-06-24T01:53:32;16.13;;;11.85;;
54831;SDS011;40730;53.068;6.572;2023-06-24T01:56:05;14.52;;;12.35;;
54831;SDS011;40730;53.068;6.572;2023-06-24T01:58:32;16.02;;;12.07;;
54831;SDS011;40730;53.068;6.572;2023-06-24T02:01:01;17.80;;;12.75;;
54831;SDS011;40730;53.068;6.572;2023-06-24T02:03:27;18.27;;;12.88;;
54831;SDS011;40730;53.068;6.572;2023-06-24T02:05:54;16.23;;;12.70;;
54831;SDS011;40730;53.068;6.572;2023-06-24T02:08:21;17.65;;;12.65;;
54831;SDS011;40730;53.068;6.572;2023-06-24T02:10:48;16.23;;;13.35;;
54831;SDS011;40730;53.068;6.572;2023-06-24T02:13:16;14.93;;;11.98;;
54831;SDS011;40730;53.068;6.572;2023-06-24T02:15:42;16.67;;;12.35;;
54831;SDS011;40730;53.068;6.572;2023-06-24T02:18:10;16.85;;;12.63;;
54831;SDS011;40730;53.068;6.572;2023-06-24T02:20:40;17.48;;;13.65;;
54831;SDS011;40730;53.068;6.572;2023-06-24T02:23:09;16.55;;;12.57;;
54831;SDS011;40730;53.068;6.572;2023-06-24T02:25:35;16.10;;;11.98;;
54831;SDS011;40730;53.068;6.572;2023-06-24T02:28:04;18.17;;;12.10;;
54831;SDS011;40730;53.068;6.572;2023-06-24T02:30:32;19.42;;;12.77;;
54831;SDS011;40730;53.068;6.572;2023-06-24T02:32:59;14.82;;;11.57;;
54831;SDS011;40730;53.068;6.572;2023-06-24T02:35:25;13.63;;;12.05;;
54831;SDS011;40730;53.068;6.572;2023-06-24T02:37:51;15.07;;;11.52;;
54831;SDS011;40730;53.068;6.572;2023-06-24T02:40:16;15.20;;;11.02;;
54831;SDS011;40730;53.068;6.572;2023-06-24T02:42:42;14.52;;;11.35;;
54831;SDS011;40730;53.068;6.572;2023-06-24T02:45:08;12.93;;;11.52;;
54831;SDS011;40730;53.068;6.572;2023-06-24T02:47:34;12.98;;;11.13;;
54831;SDS011;40730;53.068;6.572;2023-06-24T02:50:02;13.43;;;10.88;;
54831;SDS011;40730;53.068;6.572;2023-06-24T02:52:30;15.07;;;11.63;;
54831;SDS011;40730;53.068;6.572;2023-06-24T02:54:56;16.70;;;12.52;;
54831;SDS011;40730;53.068;6.572;2023-06-24T02:57:23;14.82;;;11.57;;
54831;SDS011;40730;53.068;6.572;2023-06-24T02:59:50;16.15;;;13.05;;
54831;SDS011;40730;53.068;6.572;2023-06-24T03:02:16;13.90;;;10.95;;
54831;SDS011;40730;53.068;6.572;2023-06-24T03:04:42;17.38;;;11.07;;
54831;SDS011;40730;53.068;6.572;2023-06-24T03:07:09;13.43;;;11.10;;
54831;SDS011;40730;53.068;6.572;2023-06-24T03:09:35;13.95;;;12.23;;
54831;SDS011;40730;53.068;6.572;2023-06-24T03:12:01;14.98;;;11.68;;
54831;SDS011;40730;53.068;6.572;2023-06-24T03:14:27;12.95;;;10.65;;
54831;SDS011;40730;53.068;6.572;2023-06-24T03:16:52;14.05;;;11.23;;
54831;SDS011;40730;53.068;6.572;2023-06-24T03:19:18;17.95;;;11.50;;
54831;SDS011;40730;53.068;6.572;2023-06-24T03:21:44;16.90;;;12.07;;
54831;SDS011;40730;53.068;6.572;2023-06-24T03:24:10;12.80;;;10.88;;
54831;SDS011;40730;53.068;6.572;2023-06-24T03:26:37;12.95;;;11.57;;
54831;SDS011;40730;53.068;6.572;2023-06-24T03:29:03;13.93;;;11.43;;
54831;SDS011;40730;53.068;6.572;2023-06-24T03:31:29;13.73;;;10.88;;
54831;SDS011;40730;53.068;6.572;2023-06-24T03:33:55;12.80;;;10.85;;
54831;SDS011;40730;53.068;6.572;2023-06-24T03:36:21;13.73;;;10.68;;
54831;SDS011;40730;53.068;6.572;2023-06-24T03:38:46;15.05;;;10.02;;
54831;SDS011;40730;53.068;6.572;2023-06-24T03:41:12;16.90;;;11.48;;
54831;SDS011;40730;53.068;6.572;2023-06-24T03:43:38;15.10;;;11.23;;
54831;SDS011;40730;53.068;6.572;2023-06-24T03:46:04;13.60;;;9.95;;
54831;SDS011;40730;53.068;6.572;2023-06-24T03:48:30;11.18;;;9.98;;
54831;SDS011;40730;53.068;6.572;2023-06-24T03:50:55;12.65;;;10.38;;
54831;SDS011;40730;53.068;6.572;2023-06-24T03:53:21;12.20;;;10.75;;
54831;SDS011;40730;53.068;6.572;2023-06-24T03:55:46;12.02;;;10.40;;
54831;SDS011;40730;53.068;6.572;2023-06-24T03:58:12;10.50;;;9.10;;
54831;SDS011;40730;53.068;6.572;2023-06-24T04:00:38;11.15;;;9.05;;
54831;SDS011;40730;53.068;6.572;2023-06-24T04:03:06;10.27;;;8.73;;
54831;SDS011;40730;53.068;6.572;2023-06-24T04:05:33;12.32;;;10.13;;
54831;SDS011;40730;53.068;6.572;2023-06-24T04:07:58;12.10;;;8.98;;
54831;SDS011;40730;53.068;6.572;2023-06-24T04:10:24;11.65;;;9.35;;
54831;SDS011;40730;53.068;6.572;2023-06-24T04:12:50;14.23;;;10.35;;
54831;SDS011;40730;53.068;6.572;2023-06-24T04:15:16;11.98;;;9.98;;
54831;SDS011;40730;53.068;6.572;2023-06-24T04:17:41;10.63;;;9.52;;
54831;SDS011;40730;53.068;6.572;2023-06-24T04:20:07;11.23;;;10.13;;
54831;SDS011;40730;53.068;6.572;2023-06-24T04:22:36;11.13;;;9.00;;
54831;SDS011;40730;53.068;6.572;2023-06-24T04:25:03;13.20;;;9.80;;
54831;SDS011;40730;53.068;6.572;2023-06-24T04:27:31;11.27;;;9.25;;
54831;SDS011;40730;53.068;6.572;2023-06-24T04:29:58;10.77;;;8.98;;
54831;SDS011;40730;53.068;6.572;2023-06-24T04:32:23;10.07;;;9.05;;
54831;SDS011;40730;53.068;6.572;2023-06-24T04:34:49;9.43;;;8.40;;
54831;SDS011;40730;53.068;6.572;2023-06-24T04:37:14;13.68;;;9.18;;
54831;SDS011;40730;53.068;6.572;2023-06-24T04:39:40;10.80;;;8.23;;
54831;SDS011;40730;53.068;6.572;2023-06-24T04:42:06;9.60;;;8.38;;
54831;SDS011;40730;53.068;6.572;2023-06-24T04:44:32;10.93;;;8.50;;
54831;SDS011;40730;53.068;6.572;2023-06-24T04:46:58;9.10;;;8.20;;
54831;SDS011;40730;53.068;6.572;2023-06-24T04:49:23;11.70;;;8.70;;
54831;SDS011;40730;53.068;6.572;2023-06-24T04:51:49;11.57;;;8.60;;
54831;SDS011;40730;53.068;6.572;2023-06-24T04:54:14;10.57;;;8.80;;
54831;SDS011;40730;53.068;6.572;2023-06-24T04:56:40;9.10;;;8.05;;
54831;SDS011;40730;53.068;6.572;2023-06-24T04:59:06;10.25;;;8.73;;
54831;SDS011;40730;53.068;6.572;2023-06-24T05:01:32;12.40;;;9.73;;
54831;SDS011;40730;53.068;6.572;2023-06-24T05:03:57;14.07;;;9.23;;
54831;SDS011;40730;53.068;6.572;2023-06-24T05:06:23;15.20;;;9.00;;
54831;SDS011;40730;53.068;6.572;2023-06-24T05:08:48;13.35;;;9.15;;
54831;SDS011;40730;53.068;6.572;2023-06-24T05:11:14;10.35;;;9.25;;
54831;SDS011;40730;53.068;6.572;2023-06-24T05:13:40;12.20;;;9.10;;
54831;SDS011;40730;53.068;6.572;2023-06-24T05:16:05;14.25;;;8.73;;
54831;SDS011;40730;53.068;6.572;2023-06-24T05:18:31;11.05;;;8.45;;
54831;SDS011;40730;53.068;6.572;2023-06-24T05:20:57;9.63;;;8.60;;
54831;SDS011;40730;53.068;6.572;2023-06-24T05:23:22;13.90;;;9.40;;
54831;SDS011;40730;53.068;6.572;2023-06-24T05:25:48;10.13;;;9.10;;
54831;SDS011;40730;53.068;6.572;2023-06-24T05:28:13;12.77;;;10.23;;
54831;SDS011;40730;53.068;6.572;2023-06-24T05:30:40;12.40;;;9.48;;
54831;SDS011;40730;53.068;6.572;2023-06-24T05:33:06;12.48;;;10.00;;
54831;SDS011;40730;53.068;6.572;2023-06-24T05:35:32;14.00;;;9.88;;
54831;SDS011;40730;53.068;6.572;2023-06-24T05:38:01;12.35;;;9.85;;
54831;SDS011;40730;53.068;6.572;2023-06-24T05:40:27;11.13;;;9.93;;
54831;SDS011;40730;53.068;6.572;2023-06-24T05:42:52;12.40;;;9.88;;
54831;SDS011;40730;53.068;6.572;2023-06-24T05:45:18;12.10;;;9.85;;
54831;SDS011;40730;53.068;6.572;2023-06-24T05:47:43;12.40;;;9.07;;
54831;SDS011;40730;53.068;6.572;2023-06-24T05:50:11;14.13;;;9.93;;
54831;SDS011;40730;53.068;6.572;2023-06-24T05:52:37;10.30;;;9.35;;
54831;SDS011;40730;53.068;6.572;2023-06-24T05:55:02;10.48;;;8.65;;
54831;SDS011;40730;53.068;6.572;2023-06-24T05:57:28;12.35;;;9.20;;
54831;SDS011;40730;53.068;6.572;2023-06-24T05:59:54;9.05;;;7.82;;
54831;SDS011;40730;53.068;6.572;2023-06-24T06:02:19;11.57;;;8.35;;
54831;SDS011;40730;53.068;6.572;2023-06-24T06:04:45;9.63;;;7.68;;
54831;SDS011;40730;53.068;6.572;2023-06-24T06:07:11;9.38;;;7.55;;
54831;SDS011;40730;53.068;6.572;2023-06-24T06:09:37;9.55;;;8.55;;
54831;SDS011;40730;53.068;6.572;2023-06-24T06:12:03;9.65;;;7.90;;
54831;SDS011;40730;53.068;6.572;2023-06-24T06:14:29;13.18;;;7.88;;
54831;SDS011;40730;53.068;6.572;2023-06-24T06:16:54;11.52;;;8.10;;
54831;SDS011;40730;53.068;6.572;2023-06-24T06:19:20;11.05;;;7.95;;
54831;SDS011;40730;53.068;6.572;2023-06-24T06:21:46;10.45;;;7.70;;
54831;SDS011;40730;53.068;6.572;2023-06-24T06:24:11;9.13;;;7.47;;
54831;SDS011;40730;53.068;6.572;2023-06-24T06:26:41;8.50;;;7.60;;
54831;SDS011;40730;53.068;6.572;2023-06-24T06:29:08;9.75;;;7.90;;
54831;SDS011;40730;53.068;6.572;2023-06-24T06:31:34;9.75;;;8.38;;
54831;SDS011;40730;53.068;6.572;2023-06-24T06:33:59;9.15;;;8.25;;
54831;SDS011;40730;53.068;6.572;2023-06-24T06:36:26;11.75;;;8.25;;
54831;SDS011;40730;53.068;6.572;2023-06-24T06:38:52;8.82;;;7.93;;
54831;SDS011;40730;53.068;6.572;2023-06-24T06:41:18;9.27;;;8.10;;
54831;SDS011;40730;53.068;6.572;2023-06-24T06:43:49;9.05;;;7.55;;
54831;SDS011;40730;53.068;6.572;2023-06-24T06:46:15;9.80;;;8.57;;
54831;SDS011;40730;53.068;6.572;2023-06-24T06:48:41;10.05;;;9.00;;
54831;SDS011;40730;53.068;6.572;2023-06-24T06:51:06;11.77;;;9.50;;
54831;SDS011;40730;53.068;6.572;2023-06-24T06:53:32;10.88;;;9.55;;
54831;SDS011;40730;53.068;6.572;2023-06-24T06:55:57;9.00;;;8.10;;
54831;SDS011;40730;53.068;6.572;2023-06-24T06:58:24;9.48;;;8.52;;
54831;SDS011;40730;53.068;6.572;2023-06-24T07:00:49;9.65;;;8.73;;
54831;SDS011;40730;53.068;6.572;2023-06-24T07:03:15;12.65;;;10.40;;
54831;SDS011;40730;53.068;6.572;2023-06-24T07:05:41;11.50;;;9.90;;
54831;SDS011;40730;53.068;6.572;2023-06-24T07:08:06;12.70;;;9.32;;
54831;SDS011;40730;53.068;6.572;2023-06-24T07:10:32;10.98;;;9.70;;
54831;SDS011;40730;53.068;6.572;2023-06-24T07:12:58;11.68;;;8.98;;
54831;SDS011;40730;53.068;6.572;2023-06-24T07:15:26;9.93;;;8.98;;
54831;SDS011;40730;53.068;6.572;2023-06-24T07:17:52;9.70;;;8.70;;
54831;SDS011;40730;53.068;6.572;2023-06-24T07:20:18;13.32;;;8.13;;
54831;SDS011;40730;53.068;6.572;2023-06-24T07:22:45;11.30;;;8.82;;
54831;SDS011;40730;53.068;6.572;2023-06-24T07:25:11;10.75;;;8.55;;
54831;SDS011;40730;53.068;6.572;2023-06-24T07:27:36;12.65;;;8.93;;
54831;SDS011;40730;53.068;6.572;2023-06-24T07:30:03;9.27;;;8.25;;
54831;SDS011;40730;53.068;6.572;2023-06-24T07:32:30;9.13;;;8.23;;
54831;SDS011;40730;53.068;6.572;2023-06-24T07:34:55;9.60;;;7.65;;
54831;SDS011;40730;53.068;6.572;2023-06-24T07:37:21;9.20;;;8.30;;
54831;SDS011;40730;53.068;6.572;2023-06-24T07:39:47;12.13;;;9.00;;
54831;SDS011;40730;53.068;6.572;2023-06-24T07:42:13;10.70;;;7.60;;
54831;SDS011;40730;53.068;6.572;2023-06-24T07:44:44;9.02;;;8.00;;
54831;SDS011;40730;53.068;6.572;2023-06-24T07:47:10;10.05;;;7.80;;
54831;SDS011;40730;53.068;6.572;2023-06-24T07:49:36;8.50;;;6.57;;
54831;SDS011;40730;53.068;6.572;2023-06-24T07:52:01;9.45;;;7.53;;
54831;SDS011;40730;53.068;6.572;2023-06-24T07:54:27;11.77;;;8.98;;
54831;SDS011;40730;53.068;6.572;2023-06-24T07:56:53;7.93;;;7.22;;
54831;SDS011;40730;53.068;6.572;2023-06-24T07:59:18;9.50;;;7.22;;
54831;SDS011;40730;53.068;6.572;2023-06-24T08:01:44;9.05;;;7.60;;
54831;SDS011;40730;53.068;6.572;2023-06-24T08:04:09;8.43;;;6.82;;
54831;SDS011;40730;53.068;6.572;2023-06-24T08:06:35;7.70;;;6.93;;
54831;SDS011;40730;53.068;6.572;2023-06-24T08:09:01;7.82;;;6.85;;
54831;SDS011;40730;53.068;6.572;2023-06-24T08:11:26;7.70;;;5.90;;
54831;SDS011;40730;53.068;6.572;2023-06-24T08:13:52;9.73;;;5.75;;
54831;SDS011;40730;53.068;6.572;2023-06-24T08:16:17;7.05;;;5.50;;
54831;SDS011;40730;53.068;6.572;2023-06-24T08:18:45;5.30;;;4.78;;
54831;SDS011;40730;53.068;6.572;2023-06-24T08:21:11;7.13;;;5.22;;
54831;SDS011;40730;53.068;6.572;2023-06-24T08:23:37;5.28;;;4.22;;
54831;SDS011;40730;53.068;6.572;2023-06-24T08:26:02;7.13;;;4.97;;
54831;SDS011;40730;53.068;6.572;2023-06-24T08:28:28;6.43;;;5.03;;
54831;SDS011;40730;53.068;6.572;2023-06-24T08:30:54;5.32;;;4.82;;
54831;SDS011;40730;53.068;6.572;2023-06-24T08:33:19;6.22;;;4.65;;
54831;SDS011;40730;53.068;6.572;2023-06-24T08:35:45;4.40;;;4.03;;
54831;SDS011;40730;53.068;6.572;2023-06-24T08:38:11;7.10;;;3.47;;
54831;SDS011;40730;53.068;6.572;2023-06-24T08:40:36;3.22;;;2.80;;
54831;SDS011;40730;53.068;6.572;2023-06-24T08:43:05;4.13;;;2.67;;
54831;SDS011;40730;53.068;6.572;2023-06-24T08:45:31;3.60;;;2.67;;
54831;SDS011;40730;53.068;6.572;2023-06-24T08:47:57;2.42;;;2.20;;
54831;SDS011;40730;53.068;6.572;2023-06-24T08:50:27;3.17;;;2.17;;
54831;SDS011;40730;53.068;6.572;2023-06-24T08:52:58;3.75;;;2.05;;
54831;SDS011;40730;53.068;6.572;2023-06-24T08:55:27;3.90;;;2.55;;
54831;SDS011;40730;53.068;6.572;2023-06-24T08:57:56;4.55;;;2.38;;
54831;SDS011;40730;53.068;6.572;2023-06-24T09:00:21;4.85;;;2.97;;
54831;SDS011;40730;53.068;6.572;2023-06-24T09:02:47;3.70;;;2.72;;
54831;SDS011;40730;53.068;6.572;2023-06-24T09:05:13;3.85;;;2.75;;
54831;SDS011;40730;53.068;6.572;2023-06-24T09:07:38;3.83;;;2.75;;
54831;SDS011;40730;53.068;6.572;2023-06-24T09:10:04;4.85;;;2.60;;
54831;SDS011;40730;53.068;6.572;2023-06-24T09:12:33;6.53;;;3.60;;
54831;SDS011;40730;53.068;6.572;2023-06-24T09:14:59;3.75;;;3.05;;
54831;SDS011;40730;53.068;6.572;2023-06-24T09:17:25;3.85;;;2.85;;
54831;SDS011;40730;53.068;6.572;2023-06-24T09:19:51;3.38;;;3.08;;
54831;SDS011;40730;53.068;6.572;2023-06-24T09:22:16;4.93;;;3.40;;
54831;SDS011;40730;53.068;6.572;2023-06-24T09:24:44;5.97;;;3.30;;
54831;SDS011;40730;53.068;6.572;2023-06-24T09:27:11;4.22;;;2.95;;
54831;SDS011;40730;53.068;6.572;2023-06-24T09:29:39;8.88;;;3.83;;
54831;SDS011;40730;53.068;6.572;2023-06-24T09:32:05;3.50;;;2.90;;
54831;SDS011;40730;53.068;6.572;2023-06-24T09:34:31;3.63;;;3.33;;
54831;SDS011;40730;53.068;6.572;2023-06-24T09:36:58;4.68;;;3.53;;
54831;SDS011;40730;53.068;6.572;2023-06-24T09:39:25;6.10;;;2.85;;
54831;SDS011;40730;53.068;6.572;2023-06-24T09:41:55;5.60;;;3.33;;
54831;SDS011;40730;53.068;6.572;2023-06-24T09:44:21;3.75;;;2.72;;
54831;SDS011;40730;53.068;6.572;2023-06-24T09:46:47;6.13;;;3.55;;
54831;SDS011;40730;53.068;6.572;2023-06-24T09:49:13;8.90;;;3.30;;
54831;SDS011;40730;53.068;6.572;2023-06-24T09:51:40;3.35;;;3.03;;
54831;SDS011;40730;53.068;6.572;2023-06-24T09:54:09;4.20;;;3.10;;
54831;SDS011;40730;53.068;6.572;2023-06-24T09:56:36;3.67;;;3.38;;
54831;SDS011;40730;53.068;6.572;2023-06-24T09:59:07;3.85;;;3.47;;
54831;SDS011;40730;53.068;6.572;2023-06-24T10:01:34;4.63;;;2.70;;
54831;SDS011;40730;53.068;6.572;2023-06-24T10:04:03;3.55;;;2.97;;
54831;SDS011;40730;53.068;6.572;2023-06-24T10:06:30;2.72;;;2.50;;
54831;SDS011;40730;53.068;6.572;2023-06-24T10:09:02;4.15;;;2.25;;
54831;SDS011;40730;53.068;6.572;2023-06-24T10:11:29;4.93;;;2.83;;
54831;SDS011;40730;53.068;6.572;2023-06-24T10:13:55;3.78;;;2.13;;
54831;SDS011;40730;53.068;6.572;2023-06-24T10:16:21;3.83;;;2.55;;
54831;SDS011;40730;53.068;6.572;2023-06-24T10:18:47;5.68;;;2.17;;
54831;SDS011;40730;53.068;6.572;2023-06-24T10:21:14;6.22;;;2.58;;
54831;SDS011;40730;53.068;6.572;2023-06-24T10:26:09;4.95;;;2.67;;
54831;SDS011;40730;53.068;6.572;2023-06-24T10:36:59;3.00;;;1.95;;
54831;SDS011;40730;53.068;6.572;2023-06-24T10:47:36;5.57;;;2.45;;
54831;SDS011;40730;53.068;6.572;2023-06-24T10:50:04;5.50;;;2.90;;
54831;SDS011;40730;53.068;6.572;2023-06-24T10:52:30;2.28;;;1.92;;
54831;SDS011;40730;53.068;6.572;2023-06-24T10:54:57;1.90;;;1.70;;
54831;SDS011;40730;53.068;6.572;2023-06-24T10:57:25;3.10;;;2.20;;
54831;SDS011;40730;53.068;6.572;2023-06-24T10:59:52;3.20;;;1.80;;
54831;SDS011;40730;53.068;6.572;2023-06-24T11:02:21;4.72;;;2.33;;
54831;SDS011;40730;53.068;6.572;2023-06-24T11:04:51;2.05;;;1.70;;
54831;SDS011;40730;53.068;6.572;2023-06-24T11:07:29;1.95;;;1.50;;
54831;SDS011;40730;53.068;6.572;2023-06-24T11:12:39;5.03;;;2.63;;
54831;SDS011;40730;53.068;6.572;2023-06-24T11:15:09;2.53;;;2.33;;
54831;SDS011;40730;53.068;6.572;2023-06-24T11:17:43;11.05;;;2.42;;
54831;SDS011;40730;53.068;6.572;2023-06-24T11:20:39;2.58;;;2.38;;
54831;SDS011;40730;53.068;6.572;2023-06-24T11:23:43;4.28;;;2.83;;
54831;SDS011;40730;53.068;6.572;2023-06-24T11:26:15;3.35;;;2.58;;
54831;SDS011;40730;53.068;6.572;2023-06-24T11:29:30;4.60;;;2.58;;
54831;SDS011;40730;53.068;6.572;2023-06-24T11:32:48;2.70;;;2.30;;
54831;SDS011;40730;53.068;6.572;2023-06-24T11:35:25;3.65;;;2.22;;
54831;SDS011;40730;53.068;6.572;2023-06-24T11:38:07;2.50;;;2.20;;
54831;SDS011;40730;53.068;6.572;2023-06-24T11:41:02;2.47;;;1.98;;
54831;SDS011;40730;53.068;6.572;2023-06-24T11:43:57;1.80;;;1.65;;
54831;SDS011;40730;53.068;6.572;2023-06-24T11:47:07;4.10;;;2.70;;
54831;SDS011;40730;53.068;6.572;2023-06-24T11:50:14;3.72;;;2.83;;
54831;SDS011;40730;53.068;6.572;2023-06-24T11:53:30;3.20;;;2.72;;
54831;SDS011;40730;53.068;6.572;2023-06-24T11:56:57;4.30;;;2.00;;
54831;SDS011;40730;53.068;6.572;2023-06-24T11:59:51;4.93;;;2.33;;
54831;SDS011;40730;53.068;6.572;2023-06-24T12:03:08;2.97;;;2.22;;
54831;SDS011;40730;53.068;6.572;2023-06-24T12:06:25;3.00;;;2.05;;
54831;SDS011;40730;53.068;6.572;2023-06-24T12:09:08;4.32;;;1.75;;
54831;SDS011;40730;53.068;6.572;2023-06-24T12:15:32;2.60;;;1.67;;
54831;SDS011;40730;53.068;6.572;2023-06-24T12:18:52;2.95;;;1.70;;
54831;SDS011;40730;53.068;6.572;2023-06-24T12:22:23;3.17;;;1.83;;
54831;SDS011;40730;53.068;6.572;2023-06-24T12:28:45;3.03;;;2.08;;
54831;SDS011;40730;53.068;6.572;2023-06-24T12:31:48;3.38;;;2.08;;
54831;SDS011;40730;53.068;6.572;2023-06-24T12:34:32;4.78;;;1.75;;
54831;SDS011;40730;53.068;6.572;2023-06-24T12:37:31;2.88;;;1.50;;
54831;SDS011;40730;53.068;6.572;2023-06-24T12:40:36;2.53;;;1.48;;
54831;SDS011;40730;53.068;6.572;2023-06-24T12:43:35;3.78;;;1.92;;
54831;SDS011;40730;53.068;6.572;2023-06-24T12:46:22;2.60;;;1.60;;
54831;SDS011;40730;53.068;6.572;2023-06-24T12:48:56;3.90;;;1.33;;
54831;SDS011;40730;53.068;6.572;2023-06-24T12:51:37;2.85;;;1.98;;
54831;SDS011;40730;53.068;6.572;2023-06-24T12:54:08;4.22;;;1.65;;
54831;SDS011;40730;53.068;6.572;2023-06-24T12:57:29;4.00;;;1.65;;
54831;SDS011;40730;53.068;6.572;2023-06-24T13:00:27;3.33;;;1.65;;
54831;SDS011;40730;53.068;6.572;2023-06-24T13:03:27;7.65;;;1.35;;
54831;SDS011;40730;53.068;6.572;2023-06-24T13:06:08;3.05;;;1.25;;
54831;SDS011;40730;53.068;6.572;2023-06-24T13:09:03;1.50;;;1.13;;
54831;SDS011;40730;53.068;6.572;2023-06-24T13:11:57;2.05;;;1.10;;
54831;SDS011;40730;53.068;6.572;2023-06-24T13:14:42;1.73;;;1.35;;
54831;SDS011;40730;53.068;6.572;2023-06-24T13:17:17;2.92;;;1.52;;
54831;SDS011;40730;53.068;6.572;2023-06-24T13:20:43;4.25;;;1.35;;
54831;SDS011;40730;53.068;6.572;2023-06-24T13:26:52;4.05;;;1.98;;
54831;SDS011;40730;53.068;6.572;2023-06-24T13:29:48;2.50;;;1.83;;
54831;SDS011;40730;53.068;6.572;2023-06-24T13:32:55;3.65;;;2.10;;
54831;SDS011;40730;53.068;6.572;2023-06-24T13:35:52;5.57;;;1.90;;
54831;SDS011;40730;53.068;6.572;2023-06-24T13:38:59;3.75;;;2.70;;
54831;SDS011;40730;53.068;6.572;2023-06-24T13:41:24;6.63;;;2.40;;
54831;SDS011;40730;53.068;6.572;2023-06-24T13:43:54;7.65;;;2.50;;
54831;SDS011;40730;53.068;6.572;2023-06-24T13:46:20;4.80;;;2.40;;
54831;SDS011;40730;53.068;6.572;2023-06-24T13:48:46;3.38;;;2.00;;
54831;SDS011;40730;53.068;6.572;2023-06-24T13:51:11;4.53;;;1.90;;
54831;SDS011;40730;53.068;6.572;2023-06-24T13:53:37;2.70;;;2.17;;
54831;SDS011;40730;53.068;6.572;2023-06-24T13:56:02;3.33;;;1.75;;
54831;SDS011;40730;53.068;6.572;2023-06-24T13:58:28;5.55;;;2.60;;
54831;SDS011;40730;53.068;6.572;2023-06-24T14:00:54;2.80;;;1.80;;
54831;SDS011;40730;53.068;6.572;2023-06-24T14:03:20;6.32;;;1.80;;
54831;SDS011;40730;53.068;6.572;2023-06-24T14:05:45;4.47;;;1.80;;
54831;SDS011;40730;53.068;6.572;2023-06-24T14:08:11;4.25;;;2.58;;
54831;SDS011;40730;53.068;6.572;2023-06-24T14:10:36;5.43;;;2.10;;
54831;SDS011;40730;53.068;6.572;2023-06-24T14:13:02;6.05;;;1.80;;
54831;SDS011;40730;53.068;6.572;2023-06-24T14:15:27;5.38;;;2.08;;
54831;SDS011;40730;53.068;6.572;2023-06-24T14:17:53;3.40;;;2.33;;
54831;SDS011;40730;53.068;6.572;2023-06-24T14:20:19;4.22;;;1.90;;
54831;SDS011;40730;53.068;6.572;2023-06-24T14:22:44;3.20;;;1.98;;
54831;SDS011;40730;53.068;6.572;2023-06-24T14:25:10;4.60;;;2.17;;
54831;SDS011;40730;53.068;6.572;2023-06-24T14:27:36;3.55;;;1.88;;
54831;SDS011;40730;53.068;6.572;2023-06-24T14:30:01;4.25;;;1.90;;
54831;SDS011;40730;53.068;6.572;2023-06-24T14:32:27;5.72;;;1.50;;
54831;SDS011;40730;53.068;6.572;2023-06-24T14:34:53;2.55;;;1.45;;
54831;SDS011;40730;53.068;6.572;2023-06-24T14:37:19;4.85;;;1.92;;
54831;SDS011;40730;53.068;6.572;2023-06-24T14:39:44;2.83;;;2.08;;
54831;SDS011;40730;53.068;6.572;2023-06-24T14:42:10;3.08;;;1.63;;
54831;SDS011;40730;53.068;6.572;2023-06-24T14:44:35;7.57;;;1.92;;
54831;SDS011;40730;53.068;6.572;2023-06-24T14:47:01;5.30;;;1.70;;
54831;SDS011;40730;53.068;6.572;2023-06-24T14:49:27;2.40;;;1.80;;
54831;SDS011;40730;53.068;6.572;2023-06-24T14:51:53;2.60;;;1.40;;
54831;SDS011;40730;53.068;6.572;2023-06-24T14:54:19;3.53;;;1.85;;
54831;SDS011;40730;53.068;6.572;2023-06-24T14:56:44;3.28;;;1.52;;
54831;SDS011;40730;53.068;6.572;2023-06-24T14:59:11;3.88;;;1.75;;
54831;SDS011;40730;53.068;6.572;2023-06-24T15:01:37;2.47;;;1.65;;
54831;SDS011;40730;53.068;6.572;2023-06-24T15:04:03;5.00;;;2.00;;
54831;SDS011;40730;53.068;6.572;2023-06-24T15:06:28;2.47;;;1.58;;
54831;SDS011;40730;53.068;6.572;2023-06-24T15:08:54;2.08;;;1.60;;
54831;SDS011;40730;53.068;6.572;2023-06-24T15:11:20;3.65;;;1.52;;
54831;SDS011;40730;53.068;6.572;2023-06-24T15:13:45;4.57;;;1.90;;
54831;SDS011;40730;53.068;6.572;2023-06-24T15:16:11;2.90;;;1.23;;
54831;SDS011;40730;53.068;6.572;2023-06-24T15:18:46;1.67;;;1.20;;
54831;SDS011;40730;53.068;6.572;2023-06-24T15:21:12;3.40;;;1.20;;
54831;SDS011;40730;53.068;6.572;2023-06-24T15:23:38;2.67;;;1.20;;
54831;SDS011;40730;53.068;6.572;2023-06-24T15:26:04;2.70;;;1.23;;
54831;SDS011;40730;53.068;6.572;2023-06-24T15:28:30;2.42;;;0.93;;
54831;SDS011;40730;53.068;6.572;2023-06-24T15:30:56;3.55;;;1.40;;
54831;SDS011;40730;53.068;6.572;2023-06-24T15:33:21;3.40;;;1.10;;
54831;SDS011;40730;53.068;6.572;2023-06-24T15:35:47;2.08;;;1.33;;
54831;SDS011;40730;53.068;6.572;2023-06-24T15:38:13;2.08;;;1.10;;
54831;SDS011;40730;53.068;6.572;2023-06-24T15:40:41;5.53;;;1.20;;
54831;SDS011;40730;53.068;6.572;2023-06-24T15:43:20;2.45;;;1.30;;